Mile Branch, Mississippi
Current Conditions -  °F | °C
As of 3:53 AM on Sunday 25 Jan 2015 (Local Time) from KMCB Reporting Station
Clear Clear  
Wind Chill: 28°   Ceiling: Unl
Heat Index: 33°   Visibility: 7mi
Dew Point: 31°   Wind: 6mph
Humidity: 92%   Direction: 190°S
Pressure: 30.03"   Gusts: NA
Location:  31.4031°N, 90.8369°W
Report Text: KMCB 250953Z AUTO 19005KT 7SM CLR 01/M01 A3003 RMK AO2 SLP168 T00061006
Loading
Personal Weather Stations






























Interactive Weather Map New forecast layout! Learn more

10-Day Weather Forecast

Advertisements
Track Severe Weather on mobile